WetterOnline ( https://www.wetteronline.de )

Wetter aktuell Wohltorf

Aktuelles Wetter: Boizenburg (46m)

6-stündlich | Neueste Meldungen
Ortszeit Temperatur Wetter
Do, 03.12. 1:00 -2.4° C bedeckt
Mi, 02.12. 19:00 -1.3° C wolkenlos
Mi, 02.12. 13:00 2.1° C wolkenlos
Mi, 02.12. 7:00 2.1° C bedeckt
Mi, 02.12. 1:00 2.5° C bedeckt
Di, 01.12. 19:00 2.9° C bedeckt
Di, 01.12. 13:00 3.3° C bedeckt
Di, 01.12. 7:00 2.5° C Sprühregen
Ortszeit Temperatur Wetter
Do, 03.12. 3:00 -2.3° C bedeckt
Do, 03.12. 2:40 -2.3° C bedeckt
Do, 03.12. 2:30 -2.3° C bedeckt
Do, 03.12. 2:20 -2.3° C bedeckt
Do, 03.12. 2:10 -2.4° C bedeckt
Do, 03.12. 2:00 -2.5° C bedeckt
Do, 03.12. 1:50 -2.5° C bedeckt
Do, 03.12. 1:30 -2.4° C bewölkt
Do, 03.12. 1:00 -2.4° C bedeckt
Ortszeit Relative Feuchte Sichtweite
Do, 03.12. 1:00 96% 3.6 km
Mi, 02.12. 19:00 98% 2.8 km
Mi, 02.12. 13:00 85% 10 km
Mi, 02.12. 7:00 94% 6 km
Mi, 02.12. 1:00 95% 4.6 km
Di, 01.12. 19:00 99% 2.4 km
Di, 01.12. 13:00 99% 3.0 km
Di, 01.12. 7:00 99% 1.8 km
Ortszeit Relative Feuchte Sichtweite
Do, 03.12. 3:00 96% 4.0 km
Do, 03.12. 2:40 96% -
Do, 03.12. 2:30 96% 3.8 km
Do, 03.12. 2:20 96% -
Do, 03.12. 2:10 96% -
Do, 03.12. 2:00 96% 3.7 km
Do, 03.12. 1:50 96% -
Do, 03.12. 1:30 96% 3.7 km
Do, 03.12. 1:00 96% 3.6 km
Ortszeit Niederschlagsmenge Niederschlagsart
Do, 03.12. 1:00 0.0 l/m2 in 6 Std. -
Mi, 02.12. 19:00 0.0 l/m2 in 12 Std. -
Mi, 02.12. 13:00 0.0 l/m2 in 6 Std. -
Mi, 02.12. 7:00 0.0 l/m2 in 12 Std. -
Mi, 02.12. 1:00 0.0 l/m2 in 6 Std. -
Di, 01.12. 19:00 0.2 l/m2 in 12 Std. Regen
Di, 01.12. 13:00 0.1 l/m2 in 6 Std. Regen
Di, 01.12. 7:00 3 l/m2 in 12 Std. Regen
Ortszeit Niederschlagsmenge Niederschlagsart
Do, 03.12. 3:00 0.0 l/m2 in 1 Std. -
Do, 03.12. 2:40 keine Meldung -
Do, 03.12. 2:30 0.0 l/m2 in 1 Std. -
Do, 03.12. 2:20 keine Meldung -
Do, 03.12. 2:10 keine Meldung -
Do, 03.12. 2:00 0.0 l/m2 in 1 Std. -
Do, 03.12. 1:50 keine Meldung -
Do, 03.12. 1:30 0.0 l/m2 in 1 Std. -
Do, 03.12. 1:00 0.0 l/m2 in 1 Std. -
Ortszeit Stärke Spitze Richtung
km/h Bft. km/h Grad Sektor
Do, 03.12. 1:00 13 3 19 120° SO
Mi, 02.12. 19:00 7 2 18 120° SO
Mi, 02.12. 13:00 11 2 22 120° SO
Mi, 02.12. 7:00 11 2 19 110° O
Mi, 02.12. 1:00 7 2 14 80° O
Di, 01.12. 19:00 11 2 22 80° O
Di, 01.12. 13:00 13 3 19 100° O
Di, 01.12. 7:00 13 3 26 130° SO
Ortszeit Stärke Spitze Richtung
km/h Bft. km/h Grad Sektor
Do, 03.12. 3:00 11 2 18 120° SO
Do, 03.12. 2:40 13 3 - 120° SO
Do, 03.12. 2:30 11 2 18 130° SO
Do, 03.12. 2:20 11 2 - 130° SO
Do, 03.12. 2:10 13 3 - 130° SO
Do, 03.12. 2:00 13 3 20 120° SO
Do, 03.12. 1:50 13 3 - 120° SO
Do, 03.12. 1:30 14 3 22 120° SO
Do, 03.12. 1:00 13 3 19 120° SO
Ortszeit Untergrenze Bedeckung Gattung
total tief tief mittel hoch
Do, 03.12. 1:00 690 m 8/8 8/8 - - -
Mi, 02.12. 19:00 690 m 0/8 0/8 - - -
Mi, 02.12. 13:00 - 0/8 0/8 - - -
Mi, 02.12. 7:00 600 m 8/8 8/8 - - -
Mi, 02.12. 1:00 930 m 8/8 8/8 - - -
Di, 01.12. 19:00 60 m 8/8 8/8 - - -
Di, 01.12. 13:00 90 m 8/8 8/8 - - -
Di, 01.12. 7:00 60 m 8/8 8/8 - - -
Ortszeit Bedeckungsgrad in Achtel und Wolkenuntergrenze
Do, 03.12. 3:00 7(120m) 8(630m)
Do, 03.12. 2:40 6(120m) 8(660m)
Do, 03.12. 2:30 6(120m) 8(660m)
Do, 03.12. 2:20 6(120m) 8(660m)
Do, 03.12. 2:10 7(120m) 8(660m)
Do, 03.12. 2:00 7(90m) 8(660m)
Do, 03.12. 1:50 7(90m) 8(660m)
Do, 03.12. 1:30 2(90m) 7(660m)
Do, 03.12. 1:00 8(690m)
Ortszeit Luftdruck NN (hPa) Tendenz (hPa in 3 Std.)
Do, 03.12. 1:00 1012 - 2,0
Mi, 02.12. 19:00 1015 - 1,5
Mi, 02.12. 13:00 1019 - 2,4
Mi, 02.12. 7:00 1022 - 0,6
Mi, 02.12. 1:00 1023 + 0,9
Di, 01.12. 19:00 1021 + 2,5
Di, 01.12. 13:00 1016 + 1,9
Di, 01.12. 7:00 1012 + 0,7
Ortszeit Luftdruck NN (hPa) Tendenz (hPa in 3 Std.)
Do, 03.12. 3:00 1010 - 2,5
Do, 03.12. 2:40 1010 keine Meldung
Do, 03.12. 2:30 1010 - 2,4
Do, 03.12. 2:20 1010 keine Meldung
Do, 03.12. 2:10 1011 keine Meldung
Do, 03.12. 2:00 1011 - 2,3
Do, 03.12. 1:50 1011 keine Meldung
Do, 03.12. 1:30 1011 - 2,4
Do, 03.12. 1:00 1012 - 2,0
Ortszeit Schneehöhe (cm)
Do, 03.12. 1:00 0
Mi, 02.12. 19:00 0
Mi, 02.12. 13:00 0
Mi, 02.12. 7:00 0
Mi, 02.12. 1:00 0
Di, 01.12. 19:00 0
Di, 01.12. 13:00 0
Di, 01.12. 7:00 0
Ortszeit Schneehöhe (cm)
Do, 03.12. 3:00 0
Do, 03.12. 2:40 0
Do, 03.12. 2:30 0
Do, 03.12. 2:20 0
Do, 03.12. 2:10 0
Do, 03.12. 2:00 0
Do, 03.12. 1:50 0
Do, 03.12. 1:30 0
Do, 03.12. 1:00 0
Link zu dieser Seite / Seite empfehlen

Das Wetter in ...